createdAt,value
2023-03-02T07:49:52.171Z,101457.41
2023-03-02T08:07:49.082Z,101462.72
2023-03-02T08:10:51.562Z,101454.94
2023-03-02T08:13:54.145Z,101453.44
2023-03-02T08:16:56.607Z,101445.81
2023-03-02T08:19:59.123Z,101444.16
2023-03-02T08:23:02.922Z,101444.22
2023-03-02T08:26:05.749Z,101451.94
2023-03-02T08:29:08.562Z,101439.91
2023-03-02T08:32:11.190Z,101438.13
2023-03-02T08:35:13.803Z,101439.09
2023-03-02T08:38:17.601Z,101430.56
2023-03-02T08:41:21.934Z,101436.63
2023-03-02T08:44:24.512Z,101440.13
2023-03-02T08:47:27.023Z,101435.84
2023-03-02T08:50:29.518Z,101434.16
2023-03-02T08:53:35.073Z,101426.53
2023-03-02T08:56:39.543Z,101419.72
2023-03-02T08:59:42.239Z,101417.97
2023-03-02T09:02:44.705Z,101406.75
2023-03-02T09:05:47.299Z,101414.59
2023-03-02T09:08:51.822Z,101422.41
2023-03-02T09:11:54.276Z,101420.72
2023-03-02T09:14:56.742Z,101423.31
2023-03-02T09:17:59.196Z,101411.97
2023-03-02T09:21:01.908Z,101408.59
2023-03-02T09:24:06.236Z,101418.97
2023-03-02T09:27:08.709Z,101419.94
2023-03-02T09:30:12.885Z,101424.22
2023-03-02T09:33:15.515Z,101422.44
2023-03-02T09:36:22.490Z,101428.56
2023-03-02T09:39:26.371Z,101413.91
2023-03-02T09:42:50.390Z,101409.72
2023-03-02T09:46:03.927Z,101409.75
2023-03-02T09:49:17.913Z,101414.97
2023-03-02T09:52:31.573Z,101407.19
2023-03-02T09:55:37.830Z,101413.25
2023-03-02T09:58:42.488Z,101408.97
2023-03-02T10:01:48.921Z,101413.31
2023-03-02T10:04:54.419Z,101414.16
2023-03-02T10:07:59.289Z,101412.41
2023-03-02T10:11:12.911Z,101404.59
2023-03-02T10:14:21.474Z,101405.50
2023-03-02T10:17:44.367Z,101408.09
2023-03-02T10:20:53.606Z,101405.53
2023-03-02T10:24:00.658Z,101411.63
2023-03-02T10:27:17.034Z,101408.13
2023-03-02T10:30:27.774Z,101404.63
2023-03-02T10:33:33.626Z,101415.78
2023-03-02T10:36:39.911Z,101411.47
2023-03-02T10:39:42.501Z,101418.53
2023-03-02T10:42:46.472Z,101420.28
2023-03-02T10:46:00.291Z,101423.75
2023-03-02T10:49:02.945Z,101428.97
2023-03-02T10:52:07.530Z,101432.44
2023-03-02T10:55:14.925Z,101439.34
2023-03-02T10:58:25.894Z,101443.72
2023-03-02T11:01:28.503Z,101444.50
2023-03-02T11:04:31.476Z,101445.38
2023-03-02T11:07:33.985Z,101441.06
2023-03-02T11:10:38.956Z,101442.81
2023-03-02T11:13:42.801Z,101449.75
2023-03-02T11:16:45.478Z,101446.28
2023-03-02T11:19:48.173Z,101441.09
2023-03-02T11:23:00.116Z,101448.91
2023-03-02T11:26:07.978Z,101443.72
2023-03-02T11:29:22.576Z,101450.66
2023-03-02T11:32:32.166Z,101455.00
2023-03-02T11:35:39.914Z,101454.13
2023-03-02T11:38:48.396Z,101451.53
2023-03-02T11:41:52.206Z,101461.94
2023-03-02T11:44:56.131Z,101461.06
2023-03-02T11:48:06.069Z,101461.94
2023-03-02T11:51:14.490Z,101463.66
2023-03-02T11:54:34.673Z,101466.22
2023-03-02T11:57:44.099Z,101471.47
2023-03-02T12:00:49.826Z,101461.94
2023-03-02T12:03:52.914Z,101461.09
2023-03-02T12:06:55.693Z,101459.34
2023-03-02T12:10:02.837Z,101457.59
2023-03-02T12:13:15.343Z,101455.00
2023-03-02T12:16:23.933Z,101455.88
2023-03-02T12:19:28.848Z,101455.00
2023-03-02T12:22:32.840Z,101454.97
2023-03-02T12:25:51.584Z,101444.53
2023-03-02T12:29:00.859Z,101441.09
2023-03-02T12:32:13.556Z,101445.44
2023-03-02T12:35:21.008Z,101433.28
2023-03-02T12:38:31.996Z,101436.72
2023-03-02T12:41:48.252Z,101433.28
2023-03-02T12:44:59.572Z,101425.47
2023-03-02T12:48:06.811Z,101418.53
2023-03-02T12:51:18.248Z,101408.13
2023-03-02T12:54:22.845Z,101417.69
2023-03-02T12:57:25.326Z,101410.72
2023-03-02T13:00:31.228Z,101395.13
2023-03-02T13:03:35.147Z,101390.81
2023-03-02T13:06:39.867Z,101396.00
2023-03-02T13:09:51.054Z,101394.25
2023-03-02T13:12:59.627Z,101395.13
2023-03-02T13:16:04.325Z,101389.91
2023-03-02T13:19:15.214Z,101391.66
2023-03-02T13:22:18.382Z,101389.94
2023-03-02T13:25:27.002Z,101387.31
2023-03-02T13:28:31.611Z,101385.59
2023-03-02T13:31:35.432Z,101389.06
2023-03-02T13:34:39.413Z,101376.03
2023-03-02T13:37:44.736Z,101368.22
2023-03-02T13:40:48.626Z,101364.75
2023-03-02T13:43:51.519Z,101369.97
2023-03-02T13:46:54.105Z,101363.91
2023-03-02T13:50:07.927Z,101357.81
2023-03-02T13:53:12.370Z,101353.47
2023-03-02T13:56:18.959Z,101348.22
2023-03-02T13:59:23.222Z,101349.13
2023-03-02T14:02:28.003Z,101343.91
2023-03-02T14:05:33.804Z,101348.25
2023-03-02T14:08:36.453Z,101343.94
2023-03-02T14:11:43.144Z,101348.28
2023-03-02T14:14:45.783Z,101341.34
2023-03-02T14:17:49.161Z,101328.31
2023-03-02T14:20:53.134Z,101329.19
2023-03-02T14:23:56.035Z,101325.72
2023-03-02T14:26:58.966Z,101322.25
2023-03-02T14:30:01.990Z,101322.28
2023-03-02T14:33:04.528Z,101304.03
2023-03-02T14:36:14.127Z,101297.09
2023-03-02T14:39:22.721Z,101305.81
2023-03-02T14:42:25.261Z,101296.25
2023-03-02T14:45:29.831Z,101295.41
2023-03-02T14:48:33.328Z,101285.00
2023-03-02T14:51:40.280Z,101283.25
2023-03-02T15:16:07.221Z,101253.81
2023-03-02T15:56:42.286Z,101194.88
2023-03-02T15:59:46.297Z,101202.69
2023-03-02T16:02:49.423Z,101197.47
